sensor_id;sensor_type;location;lat;lon;timestamp;P1;durP1;ratioP1;P2;durP2;ratioP2
80131;SDS011;69442;51.442;10.564;2023-06-26T00:00:21;4.70;;;3.47;;
80131;SDS011;69442;51.442;10.564;2023-06-26T00:02:47;5.10;;;3.90;;
80131;SDS011;69442;51.442;10.564;2023-06-26T00:05:12;4.40;;;3.42;;
80131;SDS011;69442;51.442;10.564;2023-06-26T00:07:38;4.40;;;3.83;;
80131;SDS011;69442;51.442;10.564;2023-06-26T00:10:04;5.30;;;4.35;;
80131;SDS011;69442;51.442;10.564;2023-06-26T00:12:30;6.32;;;4.20;;
80131;SDS011;69442;51.442;10.564;2023-06-26T00:14:56;5.03;;;3.78;;
80131;SDS011;69442;51.442;10.564;2023-06-26T00:17:21;5.70;;;3.90;;
80131;SDS011;69442;51.442;10.564;2023-06-26T00:19:47;4.95;;;3.90;;
80131;SDS011;69442;51.442;10.564;2023-06-26T00:22:13;5.90;;;4.28;;
80131;SDS011;69442;51.442;10.564;2023-06-26T00:24:38;4.85;;;3.53;;
80131;SDS011;69442;51.442;10.564;2023-06-26T00:27:03;6.07;;;4.85;;
80131;SDS011;69442;51.442;10.564;2023-06-26T00:29:29;7.22;;;4.28;;
80131;SDS011;69442;51.442;10.564;2023-06-26T00:31:54;6.22;;;4.80;;
80131;SDS011;69442;51.442;10.564;2023-06-26T00:34:20;4.63;;;3.75;;
80131;SDS011;69442;51.442;10.564;2023-06-26T00:36:45;5.78;;;4.65;;
80131;SDS011;69442;51.442;10.564;2023-06-26T00:39:11;8.13;;;5.00;;
80131;SDS011;69442;51.442;10.564;2023-06-26T00:41:37;5.55;;;4.50;;
80131;SDS011;69442;51.442;10.564;2023-06-26T00:44:03;6.60;;;4.53;;
80131;SDS011;69442;51.442;10.564;2023-06-26T00:46:29;6.35;;;4.90;;
80131;SDS011;69442;51.442;10.564;2023-06-26T00:48:55;7.03;;;4.70;;
80131;SDS011;69442;51.442;10.564;2023-06-26T00:51:21;5.72;;;4.60;;
80131;SDS011;69442;51.442;10.564;2023-06-26T00:53:47;5.88;;;4.78;;
80131;SDS011;69442;51.442;10.564;2023-06-26T00:56:13;6.05;;;4.45;;
80131;SDS011;69442;51.442;10.564;2023-06-26T00:58:40;6.03;;;4.72;;
80131;SDS011;69442;51.442;10.564;2023-06-26T01:01:05;5.63;;;4.22;;
80131;SDS011;69442;51.442;10.564;2023-06-26T01:03:33;6.47;;;4.53;;
80131;SDS011;69442;51.442;10.564;2023-06-26T01:05:59;6.55;;;4.90;;
80131;SDS011;69442;51.442;10.564;2023-06-26T01:08:25;6.32;;;4.32;;
80131;SDS011;69442;51.442;10.564;2023-06-26T01:10:51;5.40;;;4.43;;
80131;SDS011;69442;51.442;10.564;2023-06-26T01:13:17;5.75;;;3.92;;
80131;SDS011;69442;51.442;10.564;2023-06-26T01:15:43;5.00;;;4.22;;
80131;SDS011;69442;51.442;10.564;2023-06-26T01:18:08;5.45;;;4.35;;
80131;SDS011;69442;51.442;10.564;2023-06-26T01:20:35;5.63;;;3.97;;
80131;SDS011;69442;51.442;10.564;2023-06-26T01:28:32;6.15;;;4.65;;
80131;SDS011;69442;51.442;10.564;2023-06-26T01:30:59;6.40;;;4.50;;
80131;SDS011;69442;51.442;10.564;2023-06-26T01:33:25;7.32;;;4.95;;
80131;SDS011;69442;51.442;10.564;2023-06-26T01:35:52;6.57;;;5.55;;
80131;SDS011;69442;51.442;10.564;2023-06-26T01:38:18;6.47;;;5.40;;
80131;SDS011;69442;51.442;10.564;2023-06-26T01:40:45;5.82;;;4.93;;
80131;SDS011;69442;51.442;10.564;2023-06-26T01:43:15;7.85;;;5.75;;
80131;SDS011;69442;51.442;10.564;2023-06-26T01:48:08;6.57;;;4.57;;
80131;SDS011;69442;51.442;10.564;2023-06-26T01:50:37;7.85;;;6.53;;
80131;SDS011;69442;51.442;10.564;2023-06-26T01:53:14;5.53;;;4.82;;
80131;SDS011;69442;51.442;10.564;2023-06-26T01:55:53;7.28;;;5.30;;
80131;SDS011;69442;51.442;10.564;2023-06-26T01:58:25;6.03;;;5.15;;
80131;SDS011;69442;51.442;10.564;2023-06-26T02:00:52;7.43;;;5.90;;
80131;SDS011;69442;51.442;10.564;2023-06-26T02:03:18;6.20;;;5.28;;
80131;SDS011;69442;51.442;10.564;2023-06-26T02:05:45;5.93;;;5.05;;
80131;SDS011;69442;51.442;10.564;2023-06-26T02:08:10;6.90;;;5.57;;
80131;SDS011;69442;51.442;10.564;2023-06-26T02:10:38;6.78;;;5.18;;
80131;SDS011;69442;51.442;10.564;2023-06-26T02:13:04;5.90;;;5.20;;
80131;SDS011;69442;51.442;10.564;2023-06-26T02:15:29;10.65;;;5.50;;
80131;SDS011;69442;51.442;10.564;2023-06-26T02:17:54;8.25;;;5.70;;
80131;SDS011;69442;51.442;10.564;2023-06-26T02:20:20;6.45;;;5.55;;
80131;SDS011;69442;51.442;10.564;2023-06-26T02:22:45;6.88;;;5.68;;
80131;SDS011;69442;51.442;10.564;2023-06-26T02:25:10;8.13;;;6.03;;
80131;SDS011;69442;51.442;10.564;2023-06-26T02:27:37;7.97;;;5.53;;
80131;SDS011;69442;51.442;10.564;2023-06-26T02:30:02;7.55;;;5.45;;
80131;SDS011;69442;51.442;10.564;2023-06-26T02:32:28;8.18;;;6.00;;
80131;SDS011;69442;51.442;10.564;2023-06-26T02:34:53;6.03;;;4.65;;
80131;SDS011;69442;51.442;10.564;2023-06-26T02:37:19;6.80;;;4.85;;
80131;SDS011;69442;51.442;10.564;2023-06-26T02:39:44;7.82;;;5.07;;
80131;SDS011;69442;51.442;10.564;2023-06-26T02:42:10;6.70;;;5.10;;
80131;SDS011;69442;51.442;10.564;2023-06-26T02:44:35;6.25;;;5.13;;
80131;SDS011;69442;51.442;10.564;2023-06-26T02:47:01;6.68;;;4.97;;
80131;SDS011;69442;51.442;10.564;2023-06-26T02:49:26;5.43;;;4.82;;
80131;SDS011;69442;51.442;10.564;2023-06-26T02:51:51;5.40;;;4.50;;
80131;SDS011;69442;51.442;10.564;2023-06-26T02:54:17;6.32;;;4.68;;
80131;SDS011;69442;51.442;10.564;2023-06-26T02:56:42;5.57;;;4.35;;
80131;SDS011;69442;51.442;10.564;2023-06-26T02:59:07;5.90;;;4.60;;
80131;SDS011;69442;51.442;10.564;2023-06-26T03:01:33;6.70;;;4.82;;
80131;SDS011;69442;51.442;10.564;2023-06-26T03:03:58;5.57;;;4.63;;
80131;SDS011;69442;51.442;10.564;2023-06-26T03:06:25;5.50;;;4.28;;
80131;SDS011;69442;51.442;10.564;2023-06-26T03:08:51;5.85;;;4.53;;
80131;SDS011;69442;51.442;10.564;2023-06-26T03:11:18;5.60;;;4.38;;
80131;SDS011;69442;51.442;10.564;2023-06-26T03:13:43;6.75;;;5.45;;
80131;SDS011;69442;51.442;10.564;2023-06-26T03:16:08;6.45;;;5.00;;
80131;SDS011;69442;51.442;10.564;2023-06-26T03:18:34;7.32;;;4.82;;
80131;SDS011;69442;51.442;10.564;2023-06-26T03:20:59;6.93;;;4.93;;
80131;SDS011;69442;51.442;10.564;2023-06-26T03:23:25;5.38;;;4.47;;
80131;SDS011;69442;51.442;10.564;2023-06-26T03:25:50;7.28;;;4.57;;
80131;SDS011;69442;51.442;10.564;2023-06-26T03:28:16;6.15;;;4.72;;
80131;SDS011;69442;51.442;10.564;2023-06-26T03:30:41;7.82;;;5.10;;
80131;SDS011;69442;51.442;10.564;2023-06-26T03:33:06;6.50;;;4.55;;
80131;SDS011;69442;51.442;10.564;2023-06-26T03:35:32;5.30;;;4.13;;
80131;SDS011;69442;51.442;10.564;2023-06-26T03:37:57;5.35;;;3.90;;
80131;SDS011;69442;51.442;10.564;2023-06-26T03:40:23;6.32;;;4.38;;
80131;SDS011;69442;51.442;10.564;2023-06-26T03:42:49;5.03;;;3.90;;
80131;SDS011;69442;51.442;10.564;2023-06-26T03:45:14;5.68;;;4.07;;
80131;SDS011;69442;51.442;10.564;2023-06-26T03:47:39;6.22;;;4.60;;
80131;SDS011;69442;51.442;10.564;2023-06-26T03:50:05;5.93;;;4.93;;
80131;SDS011;69442;51.442;10.564;2023-06-26T03:52:31;5.65;;;4.43;;
80131;SDS011;69442;51.442;10.564;2023-06-26T03:54:59;6.80;;;4.60;;
80131;SDS011;69442;51.442;10.564;2023-06-26T03:57:25;5.43;;;3.88;;
80131;SDS011;69442;51.442;10.564;2023-06-26T03:59:51;5.43;;;3.80;;
80131;SDS011;69442;51.442;10.564;2023-06-26T04:02:17;5.68;;;3.72;;
80131;SDS011;69442;51.442;10.564;2023-06-26T04:04:42;6.30;;;4.28;;
80131;SDS011;69442;51.442;10.564;2023-06-26T04:07:07;5.90;;;4.45;;
80131;SDS011;69442;51.442;10.564;2023-06-26T04:09:33;7.45;;;5.60;;
80131;SDS011;69442;51.442;10.564;2023-06-26T04:11:58;6.10;;;4.10;;
80131;SDS011;69442;51.442;10.564;2023-06-26T04:14:24;5.97;;;4.75;;
80131;SDS011;69442;51.442;10.564;2023-06-26T04:16:49;6.07;;;4.82;;
80131;SDS011;69442;51.442;10.564;2023-06-26T04:19:14;6.50;;;5.20;;
80131;SDS011;69442;51.442;10.564;2023-06-26T04:21:40;7.32;;;4.35;;
80131;SDS011;69442;51.442;10.564;2023-06-26T04:24:05;6.90;;;4.80;;
80131;SDS011;69442;51.442;10.564;2023-06-26T04:26:31;6.07;;;4.53;;
80131;SDS011;69442;51.442;10.564;2023-06-26T04:28:56;7.00;;;4.70;;
80131;SDS011;69442;51.442;10.564;2023-06-26T04:31:21;8.82;;;4.53;;
80131;SDS011;69442;51.442;10.564;2023-06-26T04:33:47;8.25;;;4.35;;
80131;SDS011;69442;51.442;10.564;2023-06-26T04:36:19;7.72;;;3.88;;
80131;SDS011;69442;51.442;10.564;2023-06-26T04:38:44;6.25;;;4.47;;
80131;SDS011;69442;51.442;10.564;2023-06-26T04:41:09;7.88;;;4.75;;
80131;SDS011;69442;51.442;10.564;2023-06-26T04:43:35;9.98;;;4.85;;
80131;SDS011;69442;51.442;10.564;2023-06-26T04:46:02;9.25;;;5.03;;
80131;SDS011;69442;51.442;10.564;2023-06-26T04:48:27;9.25;;;4.53;;
80131;SDS011;69442;51.442;10.564;2023-06-26T04:50:54;5.60;;;4.10;;
80131;SDS011;69442;51.442;10.564;2023-06-26T04:53:21;6.22;;;4.22;;
80131;SDS011;69442;51.442;10.564;2023-06-26T04:55:48;12.05;;;4.78;;
80131;SDS011;69442;51.442;10.564;2023-06-26T04:58:16;5.82;;;4.75;;
80131;SDS011;69442;51.442;10.564;2023-06-26T05:00:42;8.23;;;5.35;;
80131;SDS011;69442;51.442;10.564;2023-06-26T05:03:09;7.60;;;4.63;;
80131;SDS011;69442;51.442;10.564;2023-06-26T05:05:35;8.90;;;4.82;;
80131;SDS011;69442;51.442;10.564;2023-06-26T05:08:12;7.85;;;4.78;;
80131;SDS011;69442;51.442;10.564;2023-06-26T05:10:47;7.10;;;4.88;;
80131;SDS011;69442;51.442;10.564;2023-06-26T05:13:13;8.52;;;4.78;;
80131;SDS011;69442;51.442;10.564;2023-06-26T05:18:09;6.60;;;4.82;;
80131;SDS011;69442;51.442;10.564;2023-06-26T05:20:35;7.07;;;4.75;;
80131;SDS011;69442;51.442;10.564;2023-06-26T05:23:01;5.18;;;3.67;;
80131;SDS011;69442;51.442;10.564;2023-06-26T05:25:28;6.85;;;5.70;;
80131;SDS011;69442;51.442;10.564;2023-06-26T05:27:55;7.45;;;5.50;;
80131;SDS011;69442;51.442;10.564;2023-06-26T05:30:21;7.80;;;4.75;;
80131;SDS011;69442;51.442;10.564;2023-06-26T05:32:47;6.05;;;4.65;;
80131;SDS011;69442;51.442;10.564;2023-06-26T05:35:13;6.97;;;5.55;;
80131;SDS011;69442;51.442;10.564;2023-06-26T05:37:41;8.95;;;7.35;;
80131;SDS011;69442;51.442;10.564;2023-06-26T05:40:07;7.30;;;6.60;;
80131;SDS011;69442;51.442;10.564;2023-06-26T05:42:34;8.82;;;7.60;;
80131;SDS011;69442;51.442;10.564;2023-06-26T05:45:00;7.97;;;7.03;;
80131;SDS011;69442;51.442;10.564;2023-06-26T05:47:25;7.07;;;5.20;;
80131;SDS011;69442;51.442;10.564;2023-06-26T05:49:51;8.32;;;6.10;;
80131;SDS011;69442;51.442;10.564;2023-06-26T05:52:16;9.32;;;7.43;;
80131;SDS011;69442;51.442;10.564;2023-06-26T05:54:42;7.63;;;5.40;;
80131;SDS011;69442;51.442;10.564;2023-06-26T05:57:07;8.40;;;6.22;;
80131;SDS011;69442;51.442;10.564;2023-06-26T05:59:34;8.93;;;6.55;;
80131;SDS011;69442;51.442;10.564;2023-06-26T06:02:04;7.75;;;5.55;;
80131;SDS011;69442;51.442;10.564;2023-06-26T06:04:29;9.50;;;6.18;;
80131;SDS011;69442;51.442;10.564;2023-06-26T06:06:55;8.82;;;6.32;;
80131;SDS011;69442;51.442;10.564;2023-06-26T06:09:20;9.70;;;7.28;;
80131;SDS011;69442;51.442;10.564;2023-06-26T06:11:46;10.30;;;7.82;;
80131;SDS011;69442;51.442;10.564;2023-06-26T06:14:11;7.65;;;6.03;;
80131;SDS011;69442;51.442;10.564;2023-06-26T06:16:36;8.38;;;5.55;;
80131;SDS011;69442;51.442;10.564;2023-06-26T06:19:02;8.60;;;6.50;;
80131;SDS011;69442;51.442;10.564;2023-06-26T06:21:28;7.28;;;5.28;;
80131;SDS011;69442;51.442;10.564;2023-06-26T06:23:53;8.02;;;6.65;;
80131;SDS011;69442;51.442;10.564;2023-06-26T06:26:19;9.38;;;6.55;;
80131;SDS011;69442;51.442;10.564;2023-06-26T06:28:44;8.60;;;6.95;;
80131;SDS011;69442;51.442;10.564;2023-06-26T06:31:09;8.95;;;6.88;;
80131;SDS011;69442;51.442;10.564;2023-06-26T06:33:35;7.53;;;5.82;;
80131;SDS011;69442;51.442;10.564;2023-06-26T06:36:00;8.15;;;6.65;;
80131;SDS011;69442;51.442;10.564;2023-06-26T06:38:25;7.95;;;5.38;;
80131;SDS011;69442;51.442;10.564;2023-06-26T06:40:51;7.30;;;5.88;;
80131;SDS011;69442;51.442;10.564;2023-06-26T06:43:16;8.60;;;5.70;;
80131;SDS011;69442;51.442;10.564;2023-06-26T06:45:42;8.63;;;5.57;;
80131;SDS011;69442;51.442;10.564;2023-06-26T06:48:07;6.63;;;5.22;;
80131;SDS011;69442;51.442;10.564;2023-06-26T06:50:32;6.72;;;4.70;;
80131;SDS011;69442;51.442;10.564;2023-06-26T06:52:58;6.78;;;5.72;;
80131;SDS011;69442;51.442;10.564;2023-06-26T06:55:23;9.43;;;5.88;;
80131;SDS011;69442;51.442;10.564;2023-06-26T06:57:50;7.90;;;5.72;;
80131;SDS011;69442;51.442;10.564;2023-06-26T07:00:16;9.20;;;6.15;;
80131;SDS011;69442;51.442;10.564;2023-06-26T07:02:42;7.95;;;5.47;;
80131;SDS011;69442;51.442;10.564;2023-06-26T07:05:09;4.63;;;3.53;;
80131;SDS011;69442;51.442;10.564;2023-06-26T07:07:35;8.70;;;5.40;;
80131;SDS011;69442;51.442;10.564;2023-06-26T07:10:03;10.10;;;6.35;;
80131;SDS011;69442;51.442;10.564;2023-06-26T07:12:34;7.50;;;5.47;;
80131;SDS011;69442;51.442;10.564;2023-06-26T07:15:00;8.10;;;4.30;;
80131;SDS011;69442;51.442;10.564;2023-06-26T07:17:27;7.53;;;6.03;;
80131;SDS011;69442;51.442;10.564;2023-06-26T07:19:53;6.85;;;5.60;;
80131;SDS011;69442;51.442;10.564;2023-06-26T07:22:18;9.27;;;5.40;;
80131;SDS011;69442;51.442;10.564;2023-06-26T07:24:49;11.70;;;6.35;;
80131;SDS011;69442;51.442;10.564;2023-06-26T07:27:18;8.02;;;6.07;;
80131;SDS011;69442;51.442;10.564;2023-06-26T07:29:44;5.07;;;4.40;;
80131;SDS011;69442;51.442;10.564;2023-06-26T07:32:09;12.23;;;6.20;;
80131;SDS011;69442;51.442;10.564;2023-06-26T07:34:35;8.57;;;5.70;;
80131;SDS011;69442;51.442;10.564;2023-06-26T07:37:00;6.22;;;5.50;;
80131;SDS011;69442;51.442;10.564;2023-06-26T07:39:26;8.63;;;5.78;;
80131;SDS011;69442;51.442;10.564;2023-06-26T07:41:51;6.82;;;5.10;;
80131;SDS011;69442;51.442;10.564;2023-06-26T07:44:17;18.30;;;6.40;;
80131;SDS011;69442;51.442;10.564;2023-06-26T07:46:42;7.60;;;4.60;;
80131;SDS011;69442;51.442;10.564;2023-06-26T07:49:09;7.28;;;5.45;;
80131;SDS011;69442;51.442;10.564;2023-06-26T07:51:35;5.40;;;4.47;;
80131;SDS011;69442;51.442;10.564;2023-06-26T07:54:00;9.05;;;4.80;;
80131;SDS011;69442;51.442;10.564;2023-06-26T07:56:25;5.30;;;3.78;;
80131;SDS011;69442;51.442;10.564;2023-06-26T07:58:51;10.07;;;5.15;;
80131;SDS011;69442;51.442;10.564;2023-06-26T08:01:16;5.63;;;4.40;;
80131;SDS011;69442;51.442;10.564;2023-06-26T08:03:42;8.13;;;5.15;;
80131;SDS011;69442;51.442;10.564;2023-06-26T08:06:07;6.97;;;5.03;;
80131;SDS011;69442;51.442;10.564;2023-06-26T08:08:33;5.55;;;4.57;;
80131;SDS011;69442;51.442;10.564;2023-06-26T08:10:58;7.38;;;4.38;;
80131;SDS011;69442;51.442;10.564;2023-06-26T08:13:24;5.63;;;4.18;;
80131;SDS011;69442;51.442;10.564;2023-06-26T08:15:50;4.18;;;2.80;;
80131;SDS011;69442;51.442;10.564;2023-06-26T08:18:15;4.82;;;3.95;;
80131;SDS011;69442;51.442;10.564;2023-06-26T08:20:40;5.57;;;4.05;;
80131;SDS011;69442;51.442;10.564;2023-06-26T08:23:06;5.78;;;4.32;;
80131;SDS011;69442;51.442;10.564;2023-06-26T08:25:31;5.45;;;4.28;;
80131;SDS011;69442;51.442;10.564;2023-06-26T08:27:57;5.22;;;3.35;;
80131;SDS011;69442;51.442;10.564;2023-06-26T08:30:22;5.03;;;4.32;;
80131;SDS011;69442;51.442;10.564;2023-06-26T08:32:52;5.45;;;4.30;;
80131;SDS011;69442;51.442;10.564;2023-06-26T08:35:18;5.45;;;4.63;;
80131;SDS011;69442;51.442;10.564;2023-06-26T08:37:43;7.00;;;4.80;;
80131;SDS011;69442;51.442;10.564;2023-06-26T08:40:08;6.30;;;4.72;;
80131;SDS011;69442;51.442;10.564;2023-06-26T08:42:35;4.88;;;4.10;;
80131;SDS011;69442;51.442;10.564;2023-06-26T08:45:00;7.75;;;4.20;;
80131;SDS011;69442;51.442;10.564;2023-06-26T08:47:26;6.25;;;4.57;;
80131;SDS011;69442;51.442;10.564;2023-06-26T08:52:43;5.10;;;4.27;;
80131;SDS011;69442;51.442;10.564;2023-06-26T08:55:10;5.15;;;4.47;;
80131;SDS011;69442;51.442;10.564;2023-06-26T08:57:40;6.07;;;3.35;;
80131;SDS011;69442;51.442;10.564;2023-06-26T09:00:05;4.60;;;3.33;;
80131;SDS011;69442;51.442;10.564;2023-06-26T09:02:33;6.78;;;4.70;;
80131;SDS011;69442;51.442;10.564;2023-06-26T09:05:00;3.50;;;2.67;;
80131;SDS011;69442;51.442;10.564;2023-06-26T09:07:27;4.45;;;3.35;;
80131;SDS011;69442;51.442;10.564;2023-06-26T09:09:52;5.63;;;4.45;;
80131;SDS011;69442;51.442;10.564;2023-06-26T09:12:17;5.60;;;4.65;;
80131;SDS011;69442;51.442;10.564;2023-06-26T09:14:44;6.03;;;4.10;;
80131;SDS011;69442;51.442;10.564;2023-06-26T09:17:09;5.10;;;4.40;;
80131;SDS011;69442;51.442;10.564;2023-06-26T09:19:37;6.10;;;4.13;;
80131;SDS011;69442;51.442;10.564;2023-06-26T09:22:03;3.20;;;2.25;;
80131;SDS011;69442;51.442;10.564;2023-06-26T09:24:29;5.95;;;4.65;;
80131;SDS011;69442;51.442;10.564;2023-06-26T09:26:55;6.10;;;4.55;;
80131;SDS011;69442;51.442;10.564;2023-06-26T09:29:21;5.13;;;4.53;;
80131;SDS011;69442;51.442;10.564;2023-06-26T09:31:46;6.57;;;4.22;;
80131;SDS011;69442;51.442;10.564;2023-06-26T09:34:12;5.35;;;4.50;;
80131;SDS011;69442;51.442;10.564;2023-06-26T09:36:38;3.70;;;3.03;;
80131;SDS011;69442;51.442;10.564;2023-06-26T09:39:03;5.32;;;4.05;;
80131;SDS011;69442;51.442;10.564;2023-06-26T09:41:33;4.60;;;3.88;;
80131;SDS011;69442;51.442;10.564;2023-06-26T09:44:03;6.07;;;4.38;;
80131;SDS011;69442;51.442;10.564;2023-06-26T09:46:32;8.15;;;4.47;;
80131;SDS011;69442;51.442;10.564;2023-06-26T09:49:00;8.32;;;4.40;;
80131;SDS011;69442;51.442;10.564;2023-06-26T09:51:31;4.93;;;4.28;;
80131;SDS011;69442;51.442;10.564;2023-06-26T09:53:57;6.32;;;4.57;;
80131;SDS011;69442;51.442;10.564;2023-06-26T09:56:23;5.35;;;4.22;;
80131;SDS011;69442;51.442;10.564;2023-06-26T09:58:49;5.95;;;4.70;;
80131;SDS011;69442;51.442;10.564;2023-06-26T10:01:14;6.03;;;4.40;;
80131;SDS011;69442;51.442;10.564;2023-06-26T10:03:40;5.78;;;4.47;;
80131;SDS011;69442;51.442;10.564;2023-06-26T10:06:05;4.95;;;4.40;;
80131;SDS011;69442;51.442;10.564;2023-06-26T10:08:34;5.97;;;4.93;;
80131;SDS011;69442;51.442;10.564;2023-06-26T10:11:01;5.45;;;4.38;;
80131;SDS011;69442;51.442;10.564;2023-06-26T10:13:27;5.13;;;4.63;;
80131;SDS011;69442;51.442;10.564;2023-06-26T10:15:59;4.75;;;4.25;;
80131;SDS011;69442;51.442;10.564;2023-06-26T10:18:26;5.32;;;4.82;;
80131;SDS011;69442;51.442;10.564;2023-06-26T10:20:53;5.28;;;4.32;;
80131;SDS011;69442;51.442;10.564;2023-06-26T10:23:22;4.63;;;4.15;;
80131;SDS011;69442;51.442;10.564;2023-06-26T10:25:51;5.60;;;4.93;;
80131;SDS011;69442;51.442;10.564;2023-06-26T10:28:20;6.45;;;4.13;;
80131;SDS011;69442;51.442;10.564;2023-06-26T10:30:48;6.25;;;4.13;;
80131;SDS011;69442;51.442;10.564;2023-06-26T10:33:15;5.00;;;4.30;;
80131;SDS011;69442;51.442;10.564;2023-06-26T10:35:44;6.13;;;3.38;;
80131;SDS011;69442;51.442;10.564;2023-06-26T10:38:10;5.15;;;4.15;;
80131;SDS011;69442;51.442;10.564;2023-06-26T10:40:45;5.07;;;4.57;;
80131;SDS011;69442;51.442;10.564;2023-06-26T10:43:13;7.03;;;4.85;;
80131;SDS011;69442;51.442;10.564;2023-06-26T10:45:46;6.07;;;4.88;;
80131;SDS011;69442;51.442;10.564;2023-06-26T10:48:17;5.40;;;4.68;;
80131;SDS011;69442;51.442;10.564;2023-06-26T10:50:42;5.32;;;4.18;;
80131;SDS011;69442;51.442;10.564;2023-06-26T10:53:12;6.30;;;4.43;;
80131;SDS011;69442;51.442;10.564;2023-06-26T10:55:54;5.25;;;4.75;;
80131;SDS011;69442;51.442;10.564;2023-06-26T10:58:27;5.88;;;5.25;;
80131;SDS011;69442;51.442;10.564;2023-06-26T11:03:36;5.75;;;5.15;;
80131;SDS011;69442;51.442;10.564;2023-06-26T11:06:18;5.53;;;5.03;;
80131;SDS011;69442;51.442;10.564;2023-06-26T11:11:14;5.35;;;4.82;;
80131;SDS011;69442;51.442;10.564;2023-06-26T11:13:40;5.72;;;4.88;;
80131;SDS011;69442;51.442;10.564;2023-06-26T11:16:06;6.88;;;5.38;;
80131;SDS011;69442;51.442;10.564;2023-06-26T11:18:32;6.28;;;4.97;;
80131;SDS011;69442;51.442;10.564;2023-06-26T11:21:07;5.75;;;5.20;;
80131;SDS011;69442;51.442;10.564;2023-06-26T11:23:34;5.10;;;4.60;;
80131;SDS011;69442;51.442;10.564;2023-06-26T11:29:02;5.07;;;4.47;;
80131;SDS011;69442;51.442;10.564;2023-06-26T11:31:28;5.90;;;5.13;;
80131;SDS011;69442;51.442;10.564;2023-06-26T11:33:56;5.65;;;5.07;;
80131;SDS011;69442;51.442;10.564;2023-06-26T11:36:24;6.15;;;5.40;;
80131;SDS011;69442;51.442;10.564;2023-06-26T11:38:57;6.28;;;5.35;;
80131;SDS011;69442;51.442;10.564;2023-06-26T11:41:24;5.28;;;4.68;;
80131;SDS011;69442;51.442;10.564;2023-06-26T11:43:51;6.70;;;5.35;;
80131;SDS011;69442;51.442;10.564;2023-06-26T11:46:20;8.90;;;5.70;;
80131;SDS011;69442;51.442;10.564;2023-06-26T11:48:47;6.63;;;5.57;;
80131;SDS011;69442;51.442;10.564;2023-06-26T11:51:13;5.53;;;4.90;;
80131;SDS011;69442;51.442;10.564;2023-06-26T11:53:42;8.70;;;5.55;;
80131;SDS011;69442;51.442;10.564;2023-06-26T11:56:09;8.55;;;5.72;;
80131;SDS011;69442;51.442;10.564;2023-06-26T11:58:35;7.13;;;5.75;;
80131;SDS011;69442;51.442;10.564;2023-06-26T12:01:01;7.10;;;5.78;;
80131;SDS011;69442;51.442;10.564;2023-06-26T12:03:27;8.93;;;5.55;;
80131;SDS011;69442;51.442;10.564;2023-06-26T12:05:54;9.88;;;5.97;;
80131;SDS011;69442;51.442;10.564;2023-06-26T12:08:20;8.77;;;5.35;;
80131;SDS011;69442;51.442;10.564;2023-06-26T12:10:46;9.85;;;6.15;;
80131;SDS011;69442;51.442;10.564;2023-06-26T12:13:11;9.25;;;6.35;;
80131;SDS011;69442;51.442;10.564;2023-06-26T12:15:37;7.88;;;6.07;;
80131;SDS011;69442;51.442;10.564;2023-06-26T12:18:08;7.65;;;6.82;;
80131;SDS011;69442;51.442;10.564;2023-06-26T12:20:39;9.27;;;6.07;;
80131;SDS011;69442;51.442;10.564;2023-06-26T12:23:11;8.25;;;6.90;;
80131;SDS011;69442;51.442;10.564;2023-06-26T12:25:37;8.60;;;5.95;;
80131;SDS011;69442;51.442;10.564;2023-06-26T12:28:03;6.97;;;6.28;;
80131;SDS011;69442;51.442;10.564;2023-06-26T12:30:28;9.52;;;6.43;;
80131;SDS011;69442;51.442;10.564;2023-06-26T12:32:53;7.60;;;6.32;;
80131;SDS011;69442;51.442;10.564;2023-06-26T12:35:19;7.03;;;5.95;;
80131;SDS011;69442;51.442;10.564;2023-06-26T12:37:44;7.60;;;6.47;;
80131;SDS011;69442;51.442;10.564;2023-06-26T12:40:17;7.57;;;6.07;;
80131;SDS011;69442;51.442;10.564;2023-06-26T12:42:44;7.10;;;5.80;;
80131;SDS011;69442;51.442;10.564;2023-06-26T12:45:11;7.05;;;5.88;;
80131;SDS011;69442;51.442;10.564;2023-06-26T12:47:37;8.63;;;6.57;;
80131;SDS011;69442;51.442;10.564;2023-06-26T12:50:04;7.82;;;6.25;;
80131;SDS011;69442;51.442;10.564;2023-06-26T12:52:31;8.40;;;6.43;;
80131;SDS011;69442;51.442;10.564;2023-06-26T12:54:56;6.90;;;6.20;;
80131;SDS011;69442;51.442;10.564;2023-06-26T12:57:22;8.25;;;6.63;;
80131;SDS011;69442;51.442;10.564;2023-06-26T12:59:48;8.35;;;6.43;;
80131;SDS011;69442;51.442;10.564;2023-06-26T13:02:14;8.85;;;7.68;;
80131;SDS011;69442;51.442;10.564;2023-06-26T13:04:40;9.23;;;7.45;;
80131;SDS011;69442;51.442;10.564;2023-06-26T13:07:06;8.52;;;7.47;;
80131;SDS011;69442;51.442;10.564;2023-06-26T13:09:33;8.52;;;7.63;;
80131;SDS011;69442;51.442;10.564;2023-06-26T13:11:59;10.75;;;7.95;;
80131;SDS011;69442;51.442;10.564;2023-06-26T13:14:25;9.32;;;7.50;;
80131;SDS011;69442;51.442;10.564;2023-06-26T13:16:51;9.60;;;7.88;;
80131;SDS011;69442;51.442;10.564;2023-06-26T13:19:16;10.55;;;8.20;;
80131;SDS011;69442;51.442;10.564;2023-06-26T13:21:41;10.52;;;8.60;;
80131;SDS011;69442;51.442;10.564;2023-06-26T13:24:07;9.38;;;8.38;;
80131;SDS011;69442;51.442;10.564;2023-06-26T13:26:32;9.43;;;8.50;;
80131;SDS011;69442;51.442;10.564;2023-06-26T13:28:58;9.60;;;8.63;;
80131;SDS011;69442;51.442;10.564;2023-06-26T13:31:24;9.77;;;8.75;;
80131;SDS011;69442;51.442;10.564;2023-06-26T13:33:49;9.52;;;8.52;;
80131;SDS011;69442;51.442;10.564;2023-06-26T13:36:15;9.95;;;8.70;;
80131;SDS011;69442;51.442;10.564;2023-06-26T13:38:41;12.93;;;8.60;;
80131;SDS011;69442;51.442;10.564;2023-06-26T13:41:06;9.82;;;8.63;;
80131;SDS011;69442;51.442;10.564;2023-06-26T13:43:32;9.57;;;8.68;;
80131;SDS011;69442;51.442;10.564;2023-06-26T13:45:57;12.43;;;8.75;;
80131;SDS011;69442;51.442;10.564;2023-06-26T13:48:23;11.00;;;9.18;;
80131;SDS011;69442;51.442;10.564;2023-06-26T13:50:52;9.90;;;8.85;;
80131;SDS011;69442;51.442;10.564;2023-06-26T13:53:17;9.82;;;8.80;;
80131;SDS011;69442;51.442;10.564;2023-06-26T13:55:43;10.00;;;8.48;;
80131;SDS011;69442;51.442;10.564;2023-06-26T13:58:09;10.27;;;8.70;;
80131;SDS011;69442;51.442;10.564;2023-06-26T14:00:36;11.15;;;8.45;;
80131;SDS011;69442;51.442;10.564;2023-06-26T14:03:02;9.48;;;8.38;;
80131;SDS011;69442;51.442;10.564;2023-06-26T14:05:35;9.65;;;8.23;;
80131;SDS011;69442;51.442;10.564;2023-06-26T14:08:05;9.77;;;6.88;;
80131;SDS011;69442;51.442;10.564;2023-06-26T14:10:32;7.88;;;6.80;;
80131;SDS011;69442;51.442;10.564;2023-06-26T14:12:58;9.40;;;7.55;;
80131;SDS011;69442;51.442;10.564;2023-06-26T14:15:24;9.85;;;7.50;;
80131;SDS011;69442;51.442;10.564;2023-06-26T14:17:50;9.68;;;7.68;;
80131;SDS011;69442;51.442;10.564;2023-06-26T14:20:16;8.35;;;6.95;;
80131;SDS011;69442;51.442;10.564;2023-06-26T14:22:42;9.35;;;7.53;;
80131;SDS011;69442;51.442;10.564;2023-06-26T14:25:11;8.23;;;6.95;;
80131;SDS011;69442;51.442;10.564;2023-06-26T14:27:37;9.48;;;7.00;;
80131;SDS011;69442;51.442;10.564;2023-06-26T14:30:04;8.10;;;6.97;;
80131;SDS011;69442;51.442;10.564;2023-06-26T14:32:30;8.05;;;7.25;;
80131;SDS011;69442;51.442;10.564;2023-06-26T14:34:56;8.45;;;6.95;;
80131;SDS011;69442;51.442;10.564;2023-06-26T14:37:23;8.45;;;7.05;;
80131;SDS011;69442;51.442;10.564;2023-06-26T14:39:49;6.97;;;6.28;;
80131;SDS011;69442;51.442;10.564;2023-06-26T14:42:14;8.98;;;6.78;;
80131;SDS011;69442;51.442;10.564;2023-06-26T14:44:40;8.82;;;7.22;;
80131;SDS011;69442;51.442;10.564;2023-06-26T14:47:05;7.20;;;6.07;;
80131;SDS011;69442;51.442;10.564;2023-06-26T14:49:31;7.30;;;6.13;;